createdAt,value
2024-03-26T00:00:16.834Z,80.4
2024-03-26T00:01:17.362Z,80.0
2024-03-26T00:02:16.915Z,80.0
2024-03-26T00:03:17.460Z,79.6
2024-03-26T00:04:17.030Z,80.0
2024-03-26T00:05:16.589Z,80.2
2024-03-26T00:06:17.178Z,80.4
2024-03-26T00:07:16.702Z,80.8
2024-03-26T00:08:17.243Z,80.2
2024-03-26T00:09:16.868Z,80.4
2024-03-26T00:10:18.237Z,81.4
2024-03-26T00:11:16.768Z,81.8
2024-03-26T00:12:17.304Z,81.2
2024-03-26T00:13:16.848Z,81.3
2024-03-26T00:14:17.373Z,80.7
2024-03-26T00:15:16.913Z,80.5
2024-03-26T00:16:17.469Z,80.1
2024-03-26T00:17:17.034Z,80.6
2024-03-26T00:18:16.626Z,80.6
2024-03-26T00:19:17.154Z,80.7
2024-03-26T00:20:16.722Z,81.1
2024-03-26T00:21:21.690Z,80.6
2024-03-26T00:22:17.269Z,80.6
2024-03-26T00:23:16.823Z,80.9
2024-03-26T00:24:17.362Z,80.9
2024-03-26T00:25:16.896Z,81.1
2024-03-26T00:26:17.457Z,81.2
2024-03-26T00:27:16.986Z,81.3
2024-03-26T00:28:16.548Z,81.4
2024-03-26T00:29:17.074Z,81.1
2024-03-26T00:30:16.596Z,80.8
2024-03-26T00:31:17.149Z,80.9
2024-03-26T00:32:16.700Z,81.1
2024-03-26T00:33:17.229Z,80.9
2024-03-26T00:34:16.735Z,81.0
2024-03-26T00:35:17.261Z,81.6
2024-03-26T00:36:16.807Z,81.9
2024-03-26T00:37:17.387Z,82.4
2024-03-26T00:38:16.943Z,83.3
2024-03-26T00:39:17.492Z,82.8
2024-03-26T00:40:17.008Z,81.5
2024-03-26T00:41:16.555Z,81.4
2024-03-26T00:42:17.070Z,81.4
2024-03-26T00:43:16.612Z,81.5
2024-03-26T00:44:17.127Z,81.2
2024-03-26T00:45:16.717Z,81.4
2024-03-26T00:46:17.278Z,81.2
2024-03-26T00:47:16.839Z,81.3
2024-03-26T00:48:17.405Z,80.9
2024-03-26T00:49:17.001Z,81.0
2024-03-26T00:50:16.543Z,81.3
2024-03-26T00:51:17.103Z,81.1
2024-03-26T00:52:16.661Z,81.1
2024-03-26T00:53:17.170Z,81.4
2024-03-26T00:54:16.742Z,81.2
2024-03-26T00:55:17.256Z,81.2
2024-03-26T00:56:16.828Z,81.0
2024-03-26T00:57:17.391Z,81.1
2024-03-26T00:58:16.917Z,80.6
2024-03-26T00:59:17.509Z,80.7
2024-03-26T01:00:17.931Z,81.2
2024-03-26T01:01:17.475Z,81.8
2024-03-26T01:02:17.034Z,82.6
2024-03-26T01:03:16.587Z,82.5
2024-03-26T01:04:17.156Z,82.0
2024-03-26T01:05:16.736Z,82.4
2024-03-26T01:06:17.302Z,83.5
2024-03-26T01:07:20.456Z,83.3
2024-03-26T01:08:17.122Z,83.9
2024-03-26T01:09:16.648Z,83.9
2024-03-26T01:10:17.236Z,83.9
2024-03-26T01:11:16.773Z,84.2
2024-03-26T01:12:17.287Z,83.7
2024-03-26T01:13:16.870Z,82.8
2024-03-26T01:14:17.451Z,82.6
2024-03-26T01:15:17.043Z,83.0
2024-03-26T01:16:16.598Z,82.4
2024-03-26T01:17:17.120Z,82.0
2024-03-26T01:18:16.698Z,81.6
2024-03-26T01:19:17.237Z,81.7
2024-03-26T01:20:16.791Z,81.6
2024-03-26T01:21:22.068Z,81.2
2024-03-26T01:22:16.756Z,81.2
2024-03-26T01:23:17.306Z,81.2
2024-03-26T01:24:16.863Z,81.4
2024-03-26T01:25:17.420Z,81.3
2024-03-26T01:26:16.980Z,81.2
2024-03-26T01:27:16.524Z,81.4
2024-03-26T01:28:17.071Z,81.4
2024-03-26T01:29:16.645Z,81.8
2024-03-26T01:30:17.286Z,83.0
2024-03-26T01:31:16.831Z,83.1
2024-03-26T01:32:17.385Z,82.6
2024-03-26T01:33:16.952Z,82.8
2024-03-26T01:34:17.479Z,83.5
2024-03-26T01:35:17.032Z,84.4
2024-03-26T01:36:16.561Z,84.7
2024-03-26T01:37:17.086Z,84.1
2024-03-26T01:38:16.611Z,84.8
2024-03-26T01:39:17.148Z,84.4
2024-03-26T01:40:16.716Z,84.6
2024-03-26T01:41:17.243Z,83.2
2024-03-26T01:42:16.825Z,83.6
2024-03-26T01:43:17.337Z,84.2
2024-03-26T01:44:16.858Z,83.4
2024-03-26T01:45:17.406Z,83.2
2024-03-26T01:46:16.968Z,83.8
2024-03-26T01:47:16.557Z,83.6
2024-03-26T01:48:17.084Z,82.8
2024-03-26T01:49:16.611Z,82.3
2024-03-26T01:50:17.163Z,81.8
2024-03-26T01:51:16.746Z,82.3
2024-03-26T01:52:17.308Z,82.0
2024-03-26T01:53:16.846Z,81.4
2024-03-26T01:54:17.391Z,81.7
2024-03-26T01:55:16.967Z,82.1
2024-03-26T01:56:16.510Z,82.5
2024-03-26T01:57:17.040Z,83.5
2024-03-26T01:58:16.577Z,83.3
2024-03-26T01:59:17.110Z,83.2
2024-03-26T02:00:16.669Z,83.7
2024-03-26T02:01:17.222Z,84.1
2024-03-26T02:02:16.779Z,84.3
2024-03-26T02:03:17.319Z,84.9
2024-03-26T02:04:16.896Z,85.1
2024-03-26T02:05:17.525Z,85.1
2024-03-26T02:06:17.091Z,85.3
2024-03-26T02:07:16.593Z,85.5
2024-03-26T02:08:17.136Z,85.9
2024-03-26T02:09:16.651Z,86.0
2024-03-26T02:10:17.172Z,86.4
2024-03-26T02:11:16.688Z,86.3
2024-03-26T02:12:17.241Z,86.4
2024-03-26T02:13:16.815Z,86.9
2024-03-26T02:14:17.338Z,86.8
2024-03-26T02:15:16.863Z,87.1
2024-03-26T02:16:17.411Z,87.0
2024-03-26T02:17:16.952Z,87.2
2024-03-26T02:18:17.473Z,87.3
2024-03-26T02:19:16.986Z,87.3
2024-03-26T02:20:16.552Z,87.4
2024-03-26T02:21:17.102Z,87.5
2024-03-26T02:22:16.643Z,87.6
2024-03-26T02:23:17.226Z,87.8
2024-03-26T02:24:16.733Z,87.9
2024-03-26T02:25:17.295Z,87.8
2024-03-26T02:26:16.840Z,88.1
2024-03-26T02:27:17.383Z,88.4
2024-03-26T02:28:16.933Z,88.3
2024-03-26T02:29:17.504Z,88.3
2024-03-26T02:30:17.110Z,88.5
2024-03-26T02:31:16.677Z,88.3
2024-03-26T02:32:17.195Z,88.0
2024-03-26T02:33:16.771Z,88.0
2024-03-26T02:34:17.326Z,88.1
2024-03-26T02:35:16.882Z,88.0
2024-03-26T02:36:17.421Z,88.0
2024-03-26T02:37:16.926Z,88.0
2024-03-26T02:38:17.492Z,86.5
2024-03-26T02:39:17.040Z,86.0
2024-03-26T02:40:16.576Z,85.3
2024-03-26T02:41:17.140Z,84.7
2024-03-26T02:42:16.657Z,83.4
2024-03-26T02:43:17.197Z,83.5
2024-03-26T02:44:16.747Z,83.0
2024-03-26T02:45:17.271Z,82.8
2024-03-26T02:46:16.800Z,82.7
2024-03-26T02:47:17.358Z,82.0
2024-03-26T02:48:16.905Z,82.3
2024-03-26T02:49:17.426Z,82.6
2024-03-26T02:50:16.936Z,82.5
2024-03-26T02:51:17.438Z,83.7
2024-03-26T02:52:16.999Z,84.7
2024-03-26T02:53:16.520Z,85.0
2024-03-26T02:54:17.033Z,85.8
2024-03-26T02:55:16.555Z,86.8
2024-03-26T02:56:17.109Z,86.8
2024-03-26T02:57:16.660Z,87.0
2024-03-26T02:58:17.210Z,87.0
2024-03-26T02:59:16.733Z,86.8
2024-03-26T03:00:17.282Z,86.9
2024-03-26T03:01:16.794Z,87.3
2024-03-26T03:02:18.793Z,87.6
2024-03-26T03:03:17.359Z,87.7
2024-03-26T03:04:16.943Z,87.6
2024-03-26T03:05:17.546Z,87.3
2024-03-26T03:06:17.076Z,87.3
2024-03-26T03:07:16.577Z,87.5
2024-03-26T03:08:17.114Z,87.7
2024-03-26T03:09:16.693Z,88.0
2024-03-26T03:10:17.210Z,87.6
2024-03-26T03:11:16.819Z,87.5
2024-03-26T03:12:17.353Z,87.7
2024-03-26T03:13:16.936Z,87.9
2024-03-26T03:14:17.541Z,88.3
2024-03-26T03:15:17.120Z,88.4
2024-03-26T03:16:16.638Z,88.3
2024-03-26T03:17:17.194Z,88.4
2024-03-26T03:18:16.761Z,88.5
2024-03-26T03:19:17.327Z,88.6
2024-03-26T03:20:16.874Z,88.6
2024-03-26T03:21:17.444Z,88.7
2024-03-26T03:22:16.986Z,88.9
2024-03-26T03:23:16.494Z,89.1
2024-03-26T03:24:17.014Z,89.3
2024-03-26T03:25:16.549Z,89.3
2024-03-26T03:26:17.079Z,89.4
2024-03-26T03:27:16.642Z,89.4
2024-03-26T03:28:17.176Z,89.6
2024-03-26T03:29:16.697Z,89.6
2024-03-26T03:30:17.229Z,89.6
2024-03-26T03:31:16.779Z,89.5
2024-03-26T03:32:17.361Z,89.4
2024-03-26T03:33:16.868Z,89.3
2024-03-26T03:34:17.457Z,89.3
2024-03-26T03:35:17.026Z,89.5
2024-03-26T03:36:16.574Z,89.4
2024-03-26T03:37:17.174Z,89.4
2024-03-26T03:38:16.698Z,89.9
2024-03-26T03:39:17.237Z,89.3
2024-03-26T03:40:16.804Z,89.3
2024-03-26T03:41:17.330Z,89.3
2024-03-26T03:42:16.862Z,89.7
2024-03-26T03:43:17.384Z,89.8
2024-03-26T03:44:16.894Z,89.9
2024-03-26T03:45:17.458Z,89.8
2024-03-26T03:46:16.995Z,89.9
2024-03-26T03:47:16.522Z,89.8
2024-03-26T03:48:17.067Z,90.1
2024-03-26T03:49:16.598Z,90.2
2024-03-26T03:50:17.164Z,90.1
2024-03-26T03:51:16.736Z,90.0
2024-03-26T03:52:17.157Z,89.9
2024-03-26T03:53:16.678Z,89.9
2024-03-26T03:54:17.230Z,89.9
2024-03-26T03:55:16.772Z,90.0
2024-03-26T03:56:17.335Z,90.1
2024-03-26T03:57:16.851Z,90.1
2024-03-26T03:58:17.451Z,90.3
2024-03-26T03:59:16.993Z,90.1
2024-03-26T04:00:16.509Z,90.0
2024-03-26T04:01:17.043Z,89.9
2024-03-26T04:02:16.547Z,89.8
2024-03-26T04:03:17.061Z,89.7
2024-03-26T04:04:16.619Z,89.7
2024-03-26T04:05:17.182Z,89.7
2024-03-26T04:06:16.737Z,89.8
2024-03-26T04:07:17.325Z,89.8
2024-03-26T04:08:16.878Z,89.9
2024-03-26T04:09:17.456Z,89.8
2024-03-26T04:10:16.985Z,89.8
2024-03-26T04:11:16.525Z,89.9
2024-03-26T04:12:17.057Z,90.1
2024-03-26T04:13:16.600Z,90.3
2024-03-26T04:14:17.122Z,90.5
2024-03-26T04:15:16.642Z,90.6
2024-03-26T04:16:17.171Z,90.2
2024-03-26T04:17:16.723Z,90.2
2024-03-26T04:18:17.256Z,89.9
2024-03-26T04:19:16.791Z,90.0
2024-03-26T04:20:17.318Z,90.0
2024-03-26T04:21:16.857Z,90.1
2024-03-26T04:22:17.407Z,90.2
2024-03-26T04:23:16.980Z,90.3
2024-03-26T04:24:16.493Z,90.4
2024-03-26T04:25:17.047Z,90.5
2024-03-26T04:26:16.617Z,90.7
2024-03-26T04:27:17.162Z,90.7
2024-03-26T04:28:16.690Z,90.4
2024-03-26T04:29:17.247Z,90.4
2024-03-26T04:30:16.785Z,90.4
2024-03-26T04:31:17.358Z,90.6
2024-03-26T04:32:16.950Z,90.4
2024-03-26T04:33:16.531Z,90.5
2024-03-26T04:34:17.096Z,90.5
2024-03-26T04:35:16.695Z,90.6
2024-03-26T04:36:17.231Z,90.5
2024-03-26T04:37:16.776Z,90.5
2024-03-26T04:38:17.300Z,90.4
2024-03-26T04:39:16.842Z,90.4
2024-03-26T04:40:17.409Z,90.4
2024-03-26T04:41:16.964Z,90.4
2024-03-26T04:42:16.534Z,90.3
2024-03-26T04:43:17.057Z,90.4
2024-03-26T04:44:16.609Z,90.7
2024-03-26T04:45:17.199Z,90.0
2024-03-26T04:46:16.717Z,90.1
2024-03-26T04:47:17.234Z,90.1
2024-03-26T04:48:16.770Z,89.9
2024-03-26T04:49:17.302Z,89.7
2024-03-26T04:50:16.859Z,89.4
2024-03-26T04:51:17.430Z,89.5
2024-03-26T04:52:17.003Z,89.5
2024-03-26T04:53:16.545Z,89.6
2024-03-26T04:54:17.073Z,89.6
2024-03-26T04:55:16.604Z,89.7
2024-03-26T04:56:17.167Z,90.0
2024-03-26T04:57:16.737Z,90.0
2024-03-26T04:58:17.289Z,89.9
2024-03-26T04:59:16.846Z,89.8
2024-03-26T05:00:17.545Z,89.8
2024-03-26T05:01:17.073Z,89.8
2024-03-26T05:02:16.606Z,89.8
2024-03-26T05:03:17.196Z,89.8
2024-03-26T05:04:16.751Z,89.8
2024-03-26T05:05:19.410Z,89.9
2024-03-26T05:06:16.971Z,89.7
2024-03-26T05:07:16.525Z,89.7
2024-03-26T05:08:17.041Z,89.8
2024-03-26T05:09:16.558Z,89.9
2024-03-26T05:10:17.138Z,89.9
2024-03-26T05:11:16.681Z,90.0
2024-03-26T05:12:17.204Z,89.8
2024-03-26T05:13:16.745Z,89.9
2024-03-26T05:14:17.291Z,90.0
2024-03-26T05:15:16.816Z,90.0
2024-03-26T05:16:17.354Z,89.9
2024-03-26T05:17:16.863Z,90.1
2024-03-26T05:18:17.407Z,90.0
2024-03-26T05:19:16.963Z,90.3
2024-03-26T05:20:16.531Z,90.2
2024-03-26T05:21:17.112Z,90.2
2024-03-26T05:22:16.645Z,90.0
2024-03-26T05:23:17.215Z,89.9
2024-03-26T05:24:16.788Z,89.9
2024-03-26T05:25:17.340Z,89.7
2024-03-26T05:26:16.934Z,89.7
2024-03-26T05:27:17.461Z,89.7
2024-03-26T05:28:16.989Z,89.9
2024-03-26T05:29:16.554Z,89.6
2024-03-26T05:30:17.093Z,89.6
2024-03-26T05:31:16.629Z,89.5
2024-03-26T05:32:17.153Z,89.6
2024-03-26T05:33:16.672Z,89.5
2024-03-26T05:34:17.232Z,89.5
2024-03-26T05:35:16.765Z,89.5
2024-03-26T05:36:17.313Z,89.4
2024-03-26T05:37:16.829Z,89.4
2024-03-26T05:38:17.300Z,89.3
2024-03-26T05:39:16.841Z,89.3
2024-03-26T05:40:17.504Z,89.2
2024-03-26T05:41:17.065Z,89.2
2024-03-26T05:42:16.762Z,89.1
2024-03-26T05:43:17.407Z,88.9
2024-03-26T05:44:16.999Z,89.0
2024-03-26T05:45:16.594Z,89.0
2024-03-26T05:46:17.171Z,89.0
2024-03-26T05:47:16.734Z,89.0
2024-03-26T05:48:17.266Z,88.9
2024-03-26T05:49:16.774Z,88.8
2024-03-26T05:50:17.351Z,88.7
2024-03-26T05:51:16.928Z,88.6
2024-03-26T05:52:17.473Z,88.3
2024-03-26T05:53:17.008Z,88.2
2024-03-26T05:54:16.598Z,88.2
2024-03-26T05:55:17.189Z,88.2
2024-03-26T05:56:16.750Z,87.9
2024-03-26T05:57:17.260Z,87.7
2024-03-26T05:58:16.812Z,87.7
2024-03-26T05:59:17.356Z,87.3
2024-03-26T06:00:16.918Z,87.0
2024-03-26T06:01:17.469Z,87.1
2024-03-26T06:02:16.980Z,86.9
2024-03-26T06:03:16.515Z,86.6
2024-03-26T06:04:17.093Z,86.6
2024-03-26T06:05:16.603Z,86.5
2024-03-26T06:06:17.132Z,86.1
2024-03-26T06:07:16.732Z,85.1
2024-03-26T06:08:17.259Z,85.0
2024-03-26T06:09:16.837Z,85.0
2024-03-26T06:10:17.438Z,85.2
2024-03-26T06:11:16.966Z,85.3
2024-03-26T06:12:17.534Z,84.6
2024-03-26T06:13:17.094Z,84.5
2024-03-26T06:14:16.697Z,84.6
2024-03-26T06:15:17.279Z,84.6
2024-03-26T06:16:16.822Z,83.8
2024-03-26T06:17:17.359Z,83.6
2024-03-26T06:18:16.904Z,83.8
2024-03-26T06:19:17.475Z,83.6
2024-03-26T06:20:17.024Z,83.2
2024-03-26T06:21:16.553Z,82.8
2024-03-26T06:22:17.121Z,82.5
2024-03-26T06:23:16.662Z,82.2
2024-03-26T06:24:17.212Z,82.1
2024-03-26T06:25:16.769Z,82.5
2024-03-26T06:26:17.328Z,81.9
2024-03-26T06:27:16.904Z,81.1
2024-03-26T06:28:17.425Z,81.0
2024-03-26T06:29:16.985Z,81.1
2024-03-26T06:30:16.544Z,80.8
2024-03-26T06:31:17.134Z,80.7
2024-03-26T06:32:16.780Z,80.1
2024-03-26T06:33:17.293Z,79.4
2024-03-26T06:34:16.805Z,79.1
2024-03-26T06:35:17.321Z,78.8
2024-03-26T06:36:16.855Z,78.9
2024-03-26T06:37:17.413Z,78.4
2024-03-26T06:38:16.942Z,78.7
2024-03-26T06:39:17.477Z,76.9
2024-03-26T06:40:17.066Z,75.3
2024-03-26T06:41:16.588Z,75.4
2024-03-26T06:42:17.146Z,76.9
2024-03-26T06:43:16.696Z,77.1
2024-03-26T06:44:17.242Z,76.1
2024-03-26T06:45:16.780Z,76.3
2024-03-26T06:46:17.314Z,75.9
2024-03-26T06:47:16.852Z,75.6
2024-03-26T06:48:17.394Z,75.1
2024-03-26T06:49:16.931Z,74.1
2024-03-26T06:50:17.548Z,74.0
2024-03-26T06:51:17.070Z,74.7
2024-03-26T06:52:16.590Z,75.7
2024-03-26T06:53:17.189Z,76.5
2024-03-26T06:54:16.784Z,75.9
2024-03-26T06:55:17.460Z,75.5
2024-03-26T06:56:17.023Z,75.2
2024-03-26T06:57:16.595Z,74.6
2024-03-26T06:58:17.215Z,73.5
2024-03-26T06:59:16.729Z,73.9
2024-03-26T07:00:17.245Z,73.3
2024-03-26T07:01:16.814Z,72.5
2024-03-26T07:02:17.400Z,71.5
2024-03-26T07:03:16.913Z,72.3
2024-03-26T07:04:17.433Z,70.8
2024-03-26T07:05:17.055Z,70.5
2024-03-26T07:06:16.588Z,70.8
2024-03-26T07:07:17.217Z,69.3
2024-03-26T07:08:16.791Z,69.7
2024-03-26T07:09:17.304Z,70.0
2024-03-26T07:10:18.945Z,68.9
2024-03-26T07:11:17.479Z,69.4
2024-03-26T07:12:17.047Z,67.8
2024-03-26T07:13:16.620Z,67.6
2024-03-26T07:14:17.165Z,68.9
2024-03-26T07:15:16.687Z,68.8
2024-03-26T07:16:17.239Z,68.3
2024-03-26T07:17:16.795Z,68.3
2024-03-26T07:18:17.329Z,68.1
2024-03-26T07:19:16.857Z,67.3
2024-03-26T07:20:17.422Z,66.6
2024-03-26T07:21:16.975Z,66.8
2024-03-26T07:22:16.523Z,66.5
2024-03-26T07:23:17.126Z,66.1
2024-03-26T07:24:16.669Z,65.5
2024-03-26T07:25:17.231Z,66.0
2024-03-26T07:26:16.757Z,65.6
2024-03-26T07:27:17.292Z,65.6
2024-03-26T07:28:16.877Z,65.6
2024-03-26T07:29:17.397Z,65.7
2024-03-26T07:30:16.931Z,63.9
2024-03-26T07:31:17.454Z,65.2
2024-03-26T07:32:17.014Z,66.2
2024-03-26T07:33:16.555Z,65.7
2024-03-26T07:34:17.093Z,64.5
2024-03-26T07:35:16.677Z,63.6
2024-03-26T07:36:17.256Z,64.0
2024-03-26T07:37:16.767Z,62.0
2024-03-26T07:38:17.334Z,62.0
2024-03-26T07:39:16.916Z,62.7
2024-03-26T07:40:17.573Z,63.3
2024-03-26T07:41:17.162Z,62.6
2024-03-26T07:42:16.888Z,64.2
2024-03-26T07:43:24.357Z,62.2
2024-03-26T07:44:16.974Z,62.8
2024-03-26T07:45:16.558Z,62.9
2024-03-26T07:46:17.138Z,64.2
2024-03-26T07:47:16.694Z,63.8
2024-03-26T07:48:17.276Z,63.5
2024-03-26T07:49:16.862Z,62.7
2024-03-26T07:50:17.463Z,63.7
2024-03-26T07:51:16.974Z,63.7
2024-03-26T07:52:16.520Z,64.3
2024-03-26T07:53:17.061Z,63.8
2024-03-26T07:54:16.685Z,63.7
2024-03-26T07:55:17.268Z,63.8
2024-03-26T07:56:16.854Z,63.3
2024-03-26T07:57:17.414Z,62.6
2024-03-26T07:58:16.962Z,62.4
2024-03-26T07:59:16.482Z,63.3
2024-03-26T08:00:17.095Z,63.2
2024-03-26T08:01:16.929Z,63.6
2024-03-26T08:02:16.602Z,64.0
2024-03-26T08:03:17.146Z,63.6
2024-03-26T08:04:16.864Z,63.5
2024-03-26T08:05:17.402Z,63.7
2024-03-26T08:06:17.027Z,62.8
2024-03-26T08:07:16.547Z,62.9
2024-03-26T08:08:17.097Z,62.7
2024-03-26T08:09:16.793Z,63.1
2024-03-26T08:10:17.398Z,62.9
2024-03-26T08:11:17.013Z,62.5
2024-03-26T08:12:16.644Z,63.1
2024-03-26T08:13:17.296Z,63.6
2024-03-26T08:14:16.852Z,63.9
2024-03-26T08:15:17.409Z,63.7
2024-03-26T08:16:16.933Z,62.9
2024-03-26T08:17:17.559Z,62.9
2024-03-26T08:18:17.278Z,63.1
2024-03-26T08:19:16.830Z,63.8
2024-03-26T08:20:17.593Z,63.6
2024-03-26T08:21:17.372Z,63.3
2024-03-26T08:22:17.176Z,63.3
2024-03-26T08:23:16.872Z,63.3
2024-03-26T08:24:17.548Z,63.6
2024-03-26T08:25:17.328Z,62.9
2024-03-26T08:26:16.950Z,63.2
2024-03-26T08:27:17.553Z,62.6
2024-03-26T08:28:17.130Z,62.4
2024-03-26T08:29:16.725Z,62.2
2024-03-26T08:30:17.289Z,62.3
2024-03-26T08:31:16.817Z,62.7
2024-03-26T08:32:17.372Z,62.4
2024-03-26T08:33:16.979Z,62.3
2024-03-26T08:34:16.531Z,62.6
2024-03-26T08:35:20.568Z,63.2
2024-03-26T08:36:17.249Z,62.7
2024-03-26T08:37:16.919Z,62.9
2024-03-26T08:38:17.498Z,62.4
2024-03-26T08:39:17.021Z,62.5
2024-03-26T08:40:16.616Z,62.3
2024-03-26T08:41:17.499Z,62.1
2024-03-26T08:42:17.123Z,61.7
2024-03-26T08:43:16.745Z,62.2
2024-03-26T08:44:17.372Z,62.3
2024-03-26T08:45:16.965Z,62.1
2024-03-26T08:46:17.493Z,62.0
2024-03-26T08:47:17.013Z,61.5
2024-03-26T08:48:16.587Z,62.1
2024-03-26T08:49:17.181Z,61.9
2024-03-26T08:50:16.742Z,61.8
2024-03-26T08:51:17.238Z,61.4
2024-03-26T08:52:16.780Z,62.4
2024-03-26T08:53:17.330Z,61.7
2024-03-26T08:54:16.915Z,60.7
2024-03-26T08:55:17.586Z,60.2
2024-03-26T08:56:25.624Z,60.2
2024-03-26T08:57:17.210Z,59.7
2024-03-26T08:58:22.734Z,59.2
2024-03-26T08:59:17.122Z,57.8
2024-03-26T09:00:16.707Z,58.1
2024-03-26T09:01:17.311Z,56.5
2024-03-26T09:02:16.878Z,56.0
2024-03-26T09:03:17.400Z,56.3
2024-03-26T09:04:16.964Z,57.9
2024-03-26T09:05:16.540Z,57.9
2024-03-26T09:06:17.088Z,56.4
2024-03-26T09:07:16.730Z,54.7
2024-03-26T09:08:17.339Z,54.4
2024-03-26T09:09:16.879Z,54.8
2024-03-26T09:10:17.556Z,57.7
2024-03-26T09:11:17.197Z,58.8
2024-03-26T09:12:16.797Z,58.0
2024-03-26T09:13:17.356Z,57.7
2024-03-26T09:14:16.880Z,57.0
2024-03-26T09:15:17.402Z,57.3
2024-03-26T09:16:16.987Z,57.3
2024-03-26T09:17:16.509Z,57.4
2024-03-26T09:18:17.078Z,56.2
2024-03-26T09:19:16.593Z,57.1
2024-03-26T09:20:17.125Z,56.9
2024-03-26T09:21:16.680Z,56.1
2024-03-26T09:22:17.220Z,56.1
2024-03-26T09:23:16.740Z,56.6
2024-03-26T09:24:17.278Z,54.7
2024-03-26T09:25:16.805Z,54.2
2024-03-26T09:26:17.409Z,54.5
2024-03-26T09:27:17.109Z,55.0
2024-03-26T09:28:16.755Z,55.0
2024-03-26T09:29:17.260Z,56.4
2024-03-26T09:30:17.062Z,54.7
2024-03-26T09:31:16.665Z,56.8
2024-03-26T09:32:17.241Z,57.3
2024-03-26T09:33:16.800Z,58.1
2024-03-26T09:34:17.362Z,57.2
2024-03-26T09:35:16.875Z,57.4
2024-03-26T09:36:17.456Z,58.2
2024-03-26T09:37:16.974Z,58.3
2024-03-26T09:38:16.565Z,58.6
2024-03-26T09:39:17.258Z,58.6
2024-03-26T09:40:17.191Z,58.8
2024-03-26T09:41:16.772Z,58.3
2024-03-26T09:42:17.569Z,58.6
2024-03-26T09:43:22.450Z,58.3
2024-03-26T09:44:17.469Z,58.4
2024-03-26T09:45:17.212Z,58.0
2024-03-26T09:46:16.778Z,58.1
2024-03-26T09:47:17.341Z,57.6
2024-03-26T09:48:16.891Z,57.2
2024-03-26T09:49:17.430Z,56.9
2024-03-26T09:50:16.988Z,57.3
2024-03-26T09:51:16.514Z,56.8
2024-03-26T09:52:17.129Z,57.5
2024-03-26T09:53:16.686Z,58.6
2024-03-26T09:54:17.248Z,58.6
2024-03-26T09:55:16.818Z,58.1
2024-03-26T09:56:17.381Z,57.5
2024-03-26T09:57:17.000Z,57.7
2024-03-26T09:58:16.610Z,57.3
2024-03-26T09:59:17.152Z,56.2
2024-03-26T10:00:16.699Z,54.9
2024-03-26T10:01:17.260Z,55.2
2024-03-26T10:02:16.780Z,55.0
2024-03-26T10:03:17.331Z,55.1
2024-03-26T10:04:16.895Z,55.7
2024-03-26T10:05:17.486Z,54.7
2024-03-26T10:06:17.026Z,55.5
2024-03-26T10:07:16.550Z,55.3
2024-03-26T10:08:17.091Z,55.5
2024-03-26T10:09:16.660Z,54.6
2024-03-26T10:10:17.214Z,54.8
2024-03-26T10:11:16.835Z,56.1
2024-03-26T10:12:17.412Z,55.3
2024-03-26T10:13:17.014Z,54.4
2024-03-26T10:14:16.593Z,54.5
2024-03-26T10:15:18.583Z,55.2
2024-03-26T10:16:17.171Z,55.6
2024-03-26T10:17:16.745Z,54.8
2024-03-26T10:18:17.343Z,55.4
2024-03-26T10:19:16.882Z,54.8
2024-03-26T10:20:17.538Z,54.5
2024-03-26T10:21:17.148Z,53.7
2024-03-26T10:22:16.696Z,53.7
2024-03-26T10:23:17.200Z,54.4
2024-03-26T10:24:16.704Z,53.3
2024-03-26T10:25:17.284Z,53.6
2024-03-26T10:26:16.869Z,53.7
2024-03-26T10:27:17.464Z,54.5
2024-03-26T10:28:17.038Z,53.8
2024-03-26T10:29:16.577Z,53.2
2024-03-26T10:30:17.163Z,52.9
2024-03-26T10:31:16.755Z,53.6
2024-03-26T10:32:17.274Z,53.6
2024-03-26T10:33:16.869Z,53.4
2024-03-26T10:34:17.450Z,53.4
2024-03-26T10:35:17.044Z,52.7
2024-03-26T10:36:16.569Z,53.5
2024-03-26T10:37:17.117Z,53.1
2024-03-26T10:38:17.729Z,52.5
2024-03-26T10:39:17.338Z,52.7
2024-03-26T10:40:16.904Z,52.4
2024-03-26T10:41:17.428Z,52.5
2024-03-26T10:42:16.995Z,52.5
2024-03-26T10:43:16.542Z,52.3
2024-03-26T10:44:17.120Z,52.9
2024-03-26T10:45:37.347Z,51.9
2024-03-26T10:46:17.115Z,52.6
2024-03-26T10:47:16.678Z,52.4
2024-03-26T10:48:17.257Z,52.8
2024-03-26T10:49:16.886Z,52.4
2024-03-26T10:50:17.483Z,51.7
2024-03-26T10:51:17.024Z,52.9
2024-03-26T10:52:16.582Z,52.9
2024-03-26T10:53:22.322Z,52.5
2024-03-26T10:54:17.119Z,51.7
2024-03-26T10:55:16.662Z,51.9
2024-03-26T10:56:17.202Z,52.5
2024-03-26T10:57:16.709Z,53.3
2024-03-26T10:58:17.297Z,52.5
2024-03-26T10:59:16.814Z,52.5
2024-03-26T11:00:17.420Z,53.9
2024-03-26T11:01:16.968Z,54.3
2024-03-26T11:02:17.527Z,53.9
2024-03-26T11:03:17.137Z,53.3
2024-03-26T11:04:16.663Z,53.1
2024-03-26T11:05:17.219Z,52.9
2024-03-26T11:06:16.810Z,53.6
2024-03-26T11:07:17.338Z,52.4
2024-03-26T11:08:16.915Z,52.9
2024-03-26T11:09:17.478Z,52.3
2024-03-26T11:10:17.138Z,52.3
2024-03-26T11:11:16.776Z,53.4
2024-03-26T11:12:17.309Z,53.1
2024-03-26T11:13:16.897Z,53.1
2024-03-26T11:14:17.429Z,53.8
2024-03-26T11:15:17.022Z,52.8
2024-03-26T11:16:16.534Z,53.3
2024-03-26T11:17:17.076Z,53.0
2024-03-26T11:18:16.601Z,53.9
2024-03-26T11:19:17.149Z,52.8
2024-03-26T11:20:16.681Z,53.0
2024-03-26T11:21:17.237Z,52.4
2024-03-26T11:22:16.787Z,52.6
2024-03-26T11:23:17.338Z,53.4
2024-03-26T11:24:16.876Z,52.5
2024-03-26T11:25:17.423Z,53.2
2024-03-26T11:26:17.028Z,53.2
2024-03-26T11:27:16.602Z,53.1
2024-03-26T11:28:17.212Z,53.0
2024-03-26T11:29:16.760Z,52.2
2024-03-26T11:30:17.296Z,53.1
2024-03-26T11:31:16.807Z,50.2
2024-03-26T11:32:20.547Z,50.7
2024-03-26T11:33:17.115Z,49.8
2024-03-26T11:34:16.676Z,50.9
2024-03-26T11:35:17.202Z,49.2
2024-03-26T11:36:16.791Z,48.3
2024-03-26T11:37:17.338Z,49.9
2024-03-26T11:38:16.861Z,49.9
2024-03-26T11:39:17.389Z,51.5
2024-03-26T11:40:16.974Z,52.1
2024-03-26T11:41:16.548Z,52.1
2024-03-26T11:42:17.077Z,51.9
2024-03-26T11:43:16.657Z,50.6
2024-03-26T11:44:17.155Z,50.5
2024-03-26T11:45:17.802Z,49.6
2024-03-26T11:46:17.423Z,49.3
2024-03-26T11:47:17.031Z,48.5
2024-03-26T11:48:16.568Z,46.6
2024-03-26T11:49:17.124Z,47.9
2024-03-26T11:50:16.677Z,48.2
2024-03-26T11:51:17.183Z,48.5
2024-03-26T11:52:16.777Z,48.0
2024-03-26T11:53:17.352Z,49.8
2024-03-26T11:54:16.916Z,50.0
2024-03-26T11:55:17.534Z,50.1
2024-03-26T11:56:17.100Z,48.6
2024-03-26T11:57:16.653Z,49.3
2024-03-26T11:58:17.219Z,50.4
2024-03-26T11:59:16.776Z,50.5
2024-03-26T12:00:17.329Z,50.1
2024-03-26T12:01:16.894Z,50.8
2024-03-26T12:02:17.447Z,50.1
2024-03-26T12:03:16.981Z,50.6
2024-03-26T12:04:16.586Z,50.7
2024-03-26T12:05:17.153Z,50.6
2024-03-26T12:06:16.727Z,51.4
2024-03-26T12:07:17.285Z,51.1
2024-03-26T12:08:16.819Z,50.7
2024-03-26T12:09:17.610Z,50.9
2024-03-26T12:10:17.181Z,51.0
2024-03-26T12:11:16.765Z,51.1
2024-03-26T12:12:17.300Z,51.1
2024-03-26T12:13:16.846Z,50.2
2024-03-26T12:14:17.435Z,50.0
2024-03-26T12:15:16.980Z,50.0
2024-03-26T12:16:19.669Z,49.2
2024-03-26T12:17:17.259Z,49.4
2024-03-26T12:18:16.807Z,49.8
2024-03-26T12:19:17.379Z,49.7
2024-03-26T12:20:16.970Z,48.9
2024-03-26T12:21:16.531Z,49.2
2024-03-26T12:22:17.075Z,49.6
2024-03-26T12:23:16.613Z,50.0
2024-03-26T12:24:17.213Z,49.4
2024-03-26T12:25:16.741Z,50.1
2024-03-26T12:26:17.450Z,51.0
2024-03-26T12:27:16.969Z,51.4
2024-03-26T12:28:17.539Z,51.5
2024-03-26T12:29:17.118Z,51.7
2024-03-26T12:30:16.689Z,51.8
2024-03-26T12:31:17.250Z,52.2
2024-03-26T12:32:16.841Z,50.8
2024-03-26T12:33:17.455Z,51.9
2024-03-26T12:34:17.022Z,50.1
2024-03-26T12:35:16.570Z,50.1
2024-03-26T12:36:17.140Z,50.3
2024-03-26T12:37:16.677Z,50.2
2024-03-26T12:38:17.261Z,50.2
2024-03-26T12:39:16.839Z,50.7
2024-03-26T12:40:17.795Z,50.5
2024-03-26T12:41:17.609Z,50.6
2024-03-26T12:42:17.127Z,51.4
2024-03-26T12:43:16.673Z,51.3
2024-03-26T12:44:21.649Z,50.4
2024-03-26T12:45:17.421Z,50.5
2024-03-26T12:46:16.952Z,50.7
2024-03-26T12:47:17.598Z,50.5
2024-03-26T12:48:17.278Z,50.8
2024-03-26T12:49:16.900Z,50.6
2024-03-26T12:50:18.383Z,50.1
2024-03-26T12:51:16.896Z,50.2
2024-03-26T12:52:17.458Z,50.4
2024-03-26T12:53:17.001Z,50.8
2024-03-26T12:54:16.524Z,50.8
2024-03-26T12:55:17.336Z,49.8
2024-03-26T12:56:16.876Z,49.5
2024-03-26T12:57:17.535Z,49.8
2024-03-26T12:58:17.074Z,49.6
2024-03-26T12:59:16.591Z,49.6
2024-03-26T13:00:17.194Z,49.8
2024-03-26T13:01:16.708Z,50.8
2024-03-26T13:02:17.286Z,50.9
2024-03-26T13:03:16.817Z,51.5
2024-03-26T13:04:17.382Z,51.9
2024-03-26T13:05:16.947Z,52.4
2024-03-26T13:06:17.494Z,53.1
2024-03-26T13:07:17.018Z,52.2
2024-03-26T13:08:16.577Z,52.3
2024-03-26T13:09:17.091Z,52.3
2024-03-26T13:10:16.628Z,52.6
2024-03-26T13:11:17.162Z,53.4
2024-03-26T13:12:16.719Z,51.7
2024-03-26T13:13:17.308Z,51.3
2024-03-26T13:14:16.854Z,51.2
2024-03-26T13:15:17.485Z,51.1
2024-03-26T13:16:17.053Z,52.2
2024-03-26T13:17:16.597Z,52.2
2024-03-26T13:18:17.128Z,51.9